FL71 weather

Pennington Heliport
De Funiak Springs, Florida, United States

Public forecast

Using degrees Fahrenheit for public forecast. Weather courtesy of forecast.io.

METAR (pilot weather report)

Closest report is Destin Executive Airport, 15.2 nm (28.2 km) W. Retrieved 2017/10/23 02:42 UTC (17 minutes ago):

KDTS 230242Z AUTO 18008KT 1 1/4SM +RA BKN014 OVC022 26/23 A3001 RMK AO2 P0025 T02610233

TAF (pilot weather forecast)

Closest forecast is Destin-Ft Walton Beach Airport, 19.1 nm (35.3 km) WNW. Retrieved 2017/10/23 01:15 UTC (2 hours ago):

TAF KVPS 230100Z 2301/2407 13015G20KT 8000 -SHRA VCTS FEW003 BKN009CB OVC014 QNH2998INS TEMPO 2301/2302 18015G37KT 4800 -TSRA SCT008CB BKN015 OVC030 BECMG 2301/2302 13015G20KT 8000 -SHRA VCTS SCT009CB OVC025 QNH2995INS TEMPO 2302/2304 18015G37KT 4800 -TSRA BKN008CB OVC015 BECMG 2305/2306 16010G15KT 9000 -SHRA SCT010 BKN020 OVC070 QNH2990INS BECMG 2314/2315 30010G15KT 9999 VCSH SCT015 BKN025 BKN080 QNH2992INS BECMG 2317/2318 32012KT 9999 NSW FEW015 SCT025 SCT080 QNH2995INS TX24/2318Z TN20/2312Z FCST BY USAF WX MET TECH